createdAt,value
2017-08-14T00:00:33.059Z,1003.4
2017-08-14T00:01:34.610Z,1003.4
2017-08-14T00:02:36.099Z,1003.4
2017-08-14T00:03:37.586Z,1003.4
2017-08-14T00:04:39.110Z,1003.4
2017-08-14T00:05:40.651Z,1003.4
2017-08-14T00:06:42.164Z,1003.4
2017-08-14T00:07:43.726Z,1003.4
2017-08-14T00:08:45.242Z,1003.4
2017-08-14T00:09:46.743Z,1003.4
2017-08-14T00:10:48.269Z,1003.4
2017-08-14T00:11:49.793Z,1003.4
2017-08-14T00:12:51.300Z,1003.4
2017-08-14T00:13:52.785Z,1003.5
2017-08-14T00:14:54.312Z,1003.4
2017-08-14T00:15:55.841Z,1003.5
2017-08-14T00:16:57.373Z,1003.5
2017-08-14T00:17:58.872Z,1003.5
2017-08-14T00:19:00.400Z,1003.5
2017-08-14T00:20:02.035Z,1003.5
2017-08-14T00:21:03.575Z,1003.5
2017-08-14T00:22:05.169Z,1003.5
2017-08-14T00:23:06.644Z,1003.5
2017-08-14T00:24:08.126Z,1003.5
2017-08-14T00:25:09.642Z,1003.5
2017-08-14T00:26:11.188Z,1003.5
2017-08-14T00:27:12.654Z,1003.4
2017-08-14T00:28:14.172Z,1003.5
2017-08-14T00:29:15.655Z,1003.5
2017-08-14T00:30:17.323Z,1003.5
2017-08-14T00:31:18.756Z,1003.5
2017-08-14T00:32:20.300Z,1003.5
2017-08-14T00:33:21.826Z,1003.5
2017-08-14T00:34:23.345Z,1003.5
2017-08-14T00:35:24.861Z,1003.5
2017-08-14T00:36:26.330Z,1003.5
2017-08-14T00:37:27.842Z,1003.5
2017-08-14T00:38:29.362Z,1003.5
2017-08-14T00:39:30.895Z,1003.5
2017-08-14T00:40:32.418Z,1003.5
2017-08-14T00:41:33.929Z,1003.5
2017-08-14T00:42:35.387Z,1003.5
2017-08-14T00:43:36.918Z,1003.5
2017-08-14T00:44:38.391Z,1003.5
2017-08-14T00:45:39.864Z,1003.5
2017-08-14T00:46:41.320Z,1003.5
2017-08-14T00:47:42.838Z,1003.5
2017-08-14T00:48:44.360Z,1003.5
2017-08-14T00:49:45.861Z,1003.5
2017-08-14T00:50:47.489Z,1003.5
2017-08-14T00:51:48.929Z,1003.5
2017-08-14T00:52:50.339Z,1003.5
2017-08-14T00:53:51.757Z,1003.5
2017-08-14T00:54:53.186Z,1003.5
2017-08-14T00:55:54.605Z,1003.5
2017-08-14T00:56:56.014Z,1003.5
2017-08-14T00:57:57.563Z,1003.5
2017-08-14T00:58:59.086Z,1003.5
2017-08-14T01:00:00.768Z,1003.5
2017-08-14T01:01:02.312Z,1003.6
2017-08-14T01:02:03.891Z,1003.5
2017-08-14T01:03:05.449Z,1003.5
2017-08-14T01:04:06.972Z,1003.5
2017-08-14T01:05:08.490Z,1003.5
2017-08-14T01:06:10.110Z,1003.5
2017-08-14T01:07:11.647Z,1003.5
2017-08-14T01:08:13.199Z,1003.5
2017-08-14T01:09:14.616Z,1003.5
2017-08-14T01:10:16.112Z,1003.5
2017-08-14T01:11:17.595Z,1003.6
2017-08-14T01:12:19.132Z,1003.5
2017-08-14T01:13:20.637Z,1003.5
2017-08-14T01:14:22.202Z,1003.5
2017-08-14T01:15:23.638Z,1003.5
2017-08-14T01:16:25.132Z,1003.5
2017-08-14T01:17:26.698Z,1003.5
2017-08-14T01:18:28.237Z,1003.5
2017-08-14T01:19:29.739Z,1003.5
2017-08-14T01:20:31.236Z,1003.5
2017-08-14T01:21:32.798Z,1003.6
2017-08-14T01:22:34.327Z,1003.5
2017-08-14T01:23:35.799Z,1003.5
2017-08-14T01:24:37.236Z,1003.5
2017-08-14T01:25:38.761Z,1003.5
2017-08-14T01:26:40.252Z,1003.5
2017-08-14T01:27:41.795Z,1003.5
2017-08-14T01:28:43.265Z,1003.6
2017-08-14T01:29:44.710Z,1003.6
2017-08-14T01:30:46.145Z,1003.6
2017-08-14T01:31:47.585Z,1003.6
2017-08-14T01:32:49.010Z,1003.6
2017-08-14T01:33:50.437Z,1003.6
2017-08-14T01:34:51.878Z,1003.5
2017-08-14T01:35:53.328Z,1003.5
2017-08-14T01:36:54.802Z,1003.6
2017-08-14T01:37:56.230Z,1003.5
2017-08-14T01:38:57.727Z,1003.6
2017-08-14T01:39:59.162Z,1003.6
2017-08-14T01:41:00.596Z,1003.6
2017-08-14T01:42:02.091Z,1003.6
2017-08-14T01:43:03.624Z,1003.6
2017-08-14T01:44:05.136Z,1003.6
2017-08-14T01:45:06.581Z,1003.6
2017-08-14T01:46:08.073Z,1003.6
2017-08-14T01:47:09.485Z,1003.6
2017-08-14T01:48:10.956Z,1003.6
2017-08-14T01:49:12.449Z,1003.6
2017-08-14T01:50:13.910Z,1003.6
2017-08-14T01:51:15.439Z,1003.6
2017-08-14T01:52:16.943Z,1003.6
2017-08-14T01:53:18.499Z,1003.5
2017-08-14T01:54:19.948Z,1003.5
2017-08-14T01:55:21.372Z,1003.6
2017-08-14T01:56:22.834Z,1003.5
2017-08-14T01:57:24.253Z,1003.6
2017-08-14T01:58:25.678Z,1003.5
2017-08-14T01:59:27.115Z,1003.5
2017-08-14T02:00:28.568Z,1003.5
2017-08-14T02:01:29.997Z,1003.5
2017-08-14T02:02:31.485Z,1003.5
2017-08-14T02:03:32.908Z,1003.5
2017-08-14T02:04:34.322Z,1003.5
2017-08-14T02:05:35.752Z,1003.5
2017-08-14T02:06:37.216Z,1003.5
2017-08-14T02:07:38.730Z,1003.5
2017-08-14T02:08:40.202Z,1003.5
2017-08-14T02:09:41.713Z,1003.5
2017-08-14T02:10:43.212Z,1003.4
2017-08-14T02:11:44.683Z,1003.4
2017-08-14T02:12:46.209Z,1003.5
2017-08-14T02:13:47.756Z,1003.5
2017-08-14T02:14:49.300Z,1003.5
2017-08-14T02:15:50.801Z,1003.5
2017-08-14T02:16:52.257Z,1003.5
2017-08-14T02:17:53.707Z,1003.5
2017-08-14T02:18:55.218Z,1003.5
2017-08-14T02:19:56.708Z,1003.4
2017-08-14T02:20:58.270Z,1003.4
2017-08-14T02:21:59.791Z,1003.4
2017-08-14T02:23:01.377Z,1003.5
2017-08-14T02:24:02.919Z,1003.5
2017-08-14T02:25:04.392Z,1003.5
2017-08-14T02:26:05.933Z,1003.5
2017-08-14T02:27:07.463Z,1003.5
2017-08-14T02:28:08.960Z,1003.5
2017-08-14T02:29:10.421Z,1003.5
2017-08-14T02:30:11.940Z,1003.5
2017-08-14T02:31:13.505Z,1003.5
2017-08-14T02:32:14.999Z,1003.5
2017-08-14T02:33:16.478Z,1003.4
2017-08-14T02:34:17.949Z,1003.5
2017-08-14T02:35:19.494Z,1003.4
2017-08-14T02:36:20.997Z,1003.4
2017-08-14T02:37:22.476Z,1003.5
2017-08-14T02:38:23.994Z,1003.5
2017-08-14T02:39:25.499Z,1003.4
2017-08-14T02:40:26.998Z,1003.4
2017-08-14T02:41:28.474Z,1003.4
2017-08-14T02:42:29.953Z,1003.5
2017-08-14T02:43:31.465Z,1003.4
2017-08-14T02:44:32.949Z,1003.4
2017-08-14T02:45:34.514Z,1003.4
2017-08-14T02:46:36.084Z,1003.4
2017-08-14T02:47:37.600Z,1003.4
2017-08-14T02:48:39.134Z,1003.4
2017-08-14T02:49:40.694Z,1003.4
2017-08-14T02:50:42.229Z,1003.4
2017-08-14T02:51:43.734Z,1003.4
2017-08-14T02:52:45.207Z,1003.4
2017-08-14T02:53:46.719Z,1003.4
2017-08-14T02:54:48.154Z,1003.4
2017-08-14T02:55:49.660Z,1003.4
2017-08-14T02:56:51.206Z,1003.4
2017-08-14T02:57:52.683Z,1003.5
2017-08-14T02:58:54.199Z,1003.4
2017-08-14T02:59:55.723Z,1003.5
2017-08-14T03:00:57.224Z,1003.4
2017-08-14T03:01:58.758Z,1003.4
2017-08-14T03:03:00.231Z,1003.4
2017-08-14T03:04:01.739Z,1003.4
2017-08-14T03:05:03.290Z,1003.4
2017-08-14T03:06:04.815Z,1003.4
2017-08-14T03:07:06.315Z,1003.4
2017-08-14T03:08:07.797Z,1003.4
2017-08-14T03:09:09.316Z,1003.4
2017-08-14T03:10:10.897Z,1003.4
2017-08-14T03:11:12.395Z,1003.4
2017-08-14T03:12:13.933Z,1003.5
2017-08-14T03:13:15.441Z,1003.5
2017-08-14T03:14:16.940Z,1003.5
2017-08-14T03:15:18.462Z,1003.5
2017-08-14T03:16:19.990Z,1003.4
2017-08-14T03:17:21.516Z,1003.5
2017-08-14T03:18:23.059Z,1003.5
2017-08-14T03:19:24.628Z,1003.4
2017-08-14T03:20:26.198Z,1003.5
2017-08-14T03:21:27.687Z,1003.5
2017-08-14T03:22:29.223Z,1003.5
2017-08-14T03:23:30.720Z,1003.4
2017-08-14T03:24:32.185Z,1003.5
2017-08-14T03:25:33.679Z,1003.4
2017-08-14T03:26:35.183Z,1003.4
2017-08-14T03:27:36.642Z,1003.4
2017-08-14T03:28:38.171Z,1003.5
2017-08-14T03:29:39.685Z,1003.5
2017-08-14T03:30:41.222Z,1003.4
2017-08-14T03:31:42.737Z,1003.5
2017-08-14T03:32:44.313Z,1003.5
2017-08-14T03:33:45.882Z,1003.4
2017-08-14T03:34:47.418Z,1003.5
2017-08-14T03:35:48.969Z,1003.4
2017-08-14T03:36:50.481Z,1003.4
2017-08-14T03:37:51.974Z,1003.4
2017-08-14T03:38:53.514Z,1003.4
2017-08-14T03:39:55.074Z,1003.5
2017-08-14T03:40:56.545Z,1003.4
2017-08-14T03:41:58.083Z,1003.4
2017-08-14T03:42:59.620Z,1003.4
2017-08-14T03:44:01.123Z,1003.5
2017-08-14T03:45:02.583Z,1003.5
2017-08-14T03:46:04.094Z,1003.5
2017-08-14T03:47:05.555Z,1003.5
2017-08-14T03:48:07.127Z,1003.5
2017-08-14T03:49:08.671Z,1003.5
2017-08-14T03:50:10.182Z,1003.5
2017-08-14T03:51:11.664Z,1003.5
2017-08-14T03:52:13.187Z,1003.5
2017-08-14T03:53:14.693Z,1003.6
2017-08-14T03:54:16.159Z,1003.6
2017-08-14T03:55:17.700Z,1003.6
2017-08-14T03:56:19.188Z,1003.6
2017-08-14T03:57:20.707Z,1003.6
2017-08-14T03:58:22.264Z,1003.6
2017-08-14T03:59:23.799Z,1003.6
2017-08-14T04:00:25.309Z,1003.6
2017-08-14T04:01:26.828Z,1003.6
2017-08-14T04:02:28.314Z,1003.6
2017-08-14T04:03:29.836Z,1003.6
2017-08-14T04:04:31.317Z,1003.6
2017-08-14T04:05:32.831Z,1003.6
2017-08-14T04:06:34.336Z,1003.7
2017-08-14T04:07:35.883Z,1003.7
2017-08-14T04:08:37.349Z,1003.7
2017-08-14T04:09:38.868Z,1003.7
2017-08-14T04:10:40.353Z,1003.7
2017-08-14T04:11:41.905Z,1003.7
2017-08-14T04:12:43.420Z,1003.7
2017-08-14T04:13:44.907Z,1003.7
2017-08-14T04:14:46.450Z,1003.7
2017-08-14T04:15:47.991Z,1003.7
2017-08-14T04:16:49.479Z,1003.7
2017-08-14T04:17:50.972Z,1003.7
2017-08-14T04:18:52.474Z,1003.7
2017-08-14T04:19:54.008Z,1003.8
2017-08-14T04:20:55.514Z,1003.7
2017-08-14T04:21:57.130Z,1003.7
2017-08-14T04:22:58.588Z,1003.7
2017-08-14T04:24:00.109Z,1003.7
2017-08-14T04:25:01.623Z,1003.7
2017-08-14T04:26:03.201Z,1003.7
2017-08-14T04:27:04.718Z,1003.7
2017-08-14T04:28:06.202Z,1003.7
2017-08-14T04:29:07.748Z,1003.7
2017-08-14T04:30:09.264Z,1003.8
2017-08-14T04:31:10.782Z,1003.7
2017-08-14T04:32:12.467Z,1003.7
2017-08-14T04:33:13.994Z,1003.7
2017-08-14T04:34:15.501Z,1003.7
2017-08-14T04:35:17.054Z,1003.7
2017-08-14T04:36:18.595Z,1003.7
2017-08-14T04:37:20.137Z,1003.7
2017-08-14T04:38:21.612Z,1003.8
2017-08-14T04:39:23.127Z,1003.8
2017-08-14T04:40:24.704Z,1003.8
2017-08-14T04:41:26.212Z,1003.8
2017-08-14T04:42:27.738Z,1003.9
2017-08-14T04:43:29.239Z,1003.8
2017-08-14T04:44:30.779Z,1003.8
2017-08-14T04:45:32.306Z,1003.8
2017-08-14T04:46:33.889Z,1003.8
2017-08-14T04:47:35.464Z,1003.9
2017-08-14T04:48:36.982Z,1003.9
2017-08-14T04:49:38.513Z,1003.9
2017-08-14T04:50:40.061Z,1003.9
2017-08-14T04:51:41.568Z,1003.9
2017-08-14T04:52:43.125Z,1003.9
2017-08-14T04:53:44.710Z,1003.9
2017-08-14T04:54:46.284Z,1003.9
2017-08-14T04:55:47.853Z,1004.0
2017-08-14T04:56:49.378Z,1004.0
2017-08-14T04:57:50.891Z,1003.9
2017-08-14T04:58:52.416Z,1003.9
2017-08-14T04:59:54.014Z,1003.9
2017-08-14T05:00:55.565Z,1004.0
2017-08-14T05:01:57.104Z,1004.0
2017-08-14T05:02:58.666Z,1004.0
2017-08-14T05:04:00.267Z,1004.0
2017-08-14T05:05:01.756Z,1004.0
2017-08-14T05:06:03.395Z,1004.0
2017-08-14T05:07:05.008Z,1004.0
2017-08-14T05:08:06.613Z,1004.0
2017-08-14T05:09:08.618Z,1004.0
2017-08-14T05:10:10.152Z,1004.0
2017-08-14T05:11:11.691Z,1004.0
2017-08-14T05:12:13.214Z,1004.0
2017-08-14T05:13:14.791Z,1004.0
2017-08-14T05:14:16.625Z,1004.0
2017-08-14T05:15:18.190Z,1004.0
2017-08-14T05:16:19.690Z,1004.1
2017-08-14T05:17:21.262Z,1004.1
2017-08-14T05:18:22.758Z,1004.1
2017-08-14T05:19:24.349Z,1004.1
2017-08-14T05:20:25.956Z,1004.1
2017-08-14T05:21:27.489Z,1004.1
2017-08-14T05:22:29.041Z,1004.1
2017-08-14T05:23:30.500Z,1004.1
2017-08-14T05:24:32.015Z,1004.0
2017-08-14T05:25:33.547Z,1004.1
2017-08-14T05:26:35.035Z,1004.1
2017-08-14T05:27:36.584Z,1004.0
2017-08-14T05:28:38.114Z,1004.1
2017-08-14T05:29:39.562Z,1004.0
2017-08-14T05:30:41.092Z,1004.1
2017-08-14T05:31:42.624Z,1004.1
2017-08-14T05:32:44.153Z,1004.1
2017-08-14T05:33:45.690Z,1004.1
2017-08-14T05:34:47.214Z,1004.1
2017-08-14T05:35:48.752Z,1004.1
2017-08-14T05:36:50.287Z,1004.1
2017-08-14T05:37:51.855Z,1004.0
2017-08-14T05:38:53.364Z,1004.0
2017-08-14T05:39:54.890Z,1004.0
2017-08-14T05:40:56.444Z,1004.0
2017-08-14T05:41:57.970Z,1004.0
2017-08-14T05:42:59.558Z,1004.0
2017-08-14T05:44:01.080Z,1004.0
2017-08-14T05:45:02.604Z,1004.0
2017-08-14T05:46:04.139Z,1004.1
2017-08-14T05:47:05.692Z,1004.0
2017-08-14T05:48:07.175Z,1004.0
2017-08-14T05:49:08.728Z,1004.0
2017-08-14T05:50:10.292Z,1004.0
2017-08-14T05:51:11.852Z,1004.0
2017-08-14T05:52:13.366Z,1004.0
2017-08-14T05:53:14.941Z,1004.0
2017-08-14T05:54:16.453Z,1004.0
2017-08-14T05:55:18.045Z,1004.1
2017-08-14T05:56:19.535Z,1004.1
2017-08-14T05:57:21.028Z,1004.1
2017-08-14T05:58:22.529Z,1004.1
2017-08-14T05:59:24.028Z,1004.1
2017-08-14T06:00:25.592Z,1004.1
2017-08-14T06:01:27.266Z,1004.1
2017-08-14T06:02:28.804Z,1004.1
2017-08-14T06:03:30.375Z,1004.1
2017-08-14T06:04:31.901Z,1004.2
2017-08-14T06:05:33.431Z,1004.1
2017-08-14T06:06:34.997Z,1004.1
2017-08-14T06:07:36.472Z,1004.1
2017-08-14T06:08:37.984Z,1004.2
2017-08-14T06:09:39.525Z,1004.1
2017-08-14T06:10:41.122Z,1004.2
2017-08-14T06:11:42.708Z,1004.2
2017-08-14T06:12:44.263Z,1004.2
2017-08-14T06:13:45.772Z,1004.1
2017-08-14T06:14:47.405Z,1004.2
2017-08-14T06:15:48.918Z,1004.2
2017-08-14T06:16:50.478Z,1004.2
2017-08-14T06:17:52.039Z,1004.2
2017-08-14T06:18:53.595Z,1004.2
2017-08-14T06:19:55.233Z,1004.3
2017-08-14T06:20:56.725Z,1004.2
2017-08-14T06:21:58.349Z,1004.2
2017-08-14T06:22:59.953Z,1004.2
2017-08-14T06:24:01.495Z,1004.2
2017-08-14T06:25:03.027Z,1004.3
2017-08-14T06:26:04.542Z,1004.2
2017-08-14T06:27:06.068Z,1004.3
2017-08-14T06:28:07.585Z,1004.2
2017-08-14T06:29:09.114Z,1004.2
2017-08-14T06:30:10.698Z,1004.3
2017-08-14T06:31:12.354Z,1004.3
2017-08-14T06:32:13.892Z,1004.3
2017-08-14T06:33:15.429Z,1004.3
2017-08-14T06:34:16.932Z,1004.3
2017-08-14T06:35:18.493Z,1004.3
2017-08-14T06:36:20.023Z,1004.3
2017-08-14T06:37:21.551Z,1004.3
2017-08-14T06:38:23.099Z,1004.3
2017-08-14T06:39:24.646Z,1004.2
2017-08-14T06:40:26.219Z,1004.3
2017-08-14T06:41:27.799Z,1004.3
2017-08-14T06:42:29.354Z,1004.3
2017-08-14T06:43:30.881Z,1004.2
2017-08-14T06:44:32.389Z,1004.2
2017-08-14T06:45:33.972Z,1004.3
2017-08-14T06:46:35.572Z,1004.3
2017-08-14T06:47:37.096Z,1004.3
2017-08-14T06:48:38.758Z,1004.3
2017-08-14T06:49:40.279Z,1004.3
2017-08-14T06:50:41.872Z,1004.3
2017-08-14T06:51:43.427Z,1004.3
2017-08-14T06:52:44.962Z,1004.3
2017-08-14T06:53:46.535Z,1004.3
2017-08-14T06:54:48.097Z,1004.3
2017-08-14T06:55:49.586Z,1004.3
2017-08-14T06:56:51.107Z,1004.4
2017-08-14T06:57:52.610Z,1004.4
2017-08-14T06:58:54.101Z,1004.3
2017-08-14T06:59:55.651Z,1004.4
2017-08-14T07:00:57.169Z,1004.4
2017-08-14T07:01:58.657Z,1004.4
2017-08-14T07:03:00.216Z,1004.4
2017-08-14T07:04:01.774Z,1004.3
2017-08-14T07:05:03.304Z,1004.4
2017-08-14T07:06:04.850Z,1004.4
2017-08-14T07:07:06.406Z,1004.4
2017-08-14T07:08:07.906Z,1004.3
2017-08-14T07:09:09.463Z,1004.3
2017-08-14T07:10:10.994Z,1004.3
2017-08-14T07:11:12.509Z,1004.3
2017-08-14T07:12:14.045Z,1004.3
2017-08-14T07:13:15.579Z,1004.3
2017-08-14T07:14:17.146Z,1004.3
2017-08-14T07:15:18.665Z,1004.3
2017-08-14T07:16:20.223Z,1004.3
2017-08-14T07:17:21.738Z,1004.3
2017-08-14T07:18:23.313Z,1004.3
2017-08-14T07:19:24.816Z,1004.3
2017-08-14T07:20:26.388Z,1004.3
2017-08-14T07:21:27.940Z,1004.2
2017-08-14T07:22:29.473Z,1004.2
2017-08-14T07:23:30.993Z,1004.2
2017-08-14T07:24:32.572Z,1004.2
2017-08-14T07:25:34.120Z,1004.2
2017-08-14T07:26:35.654Z,1004.2
2017-08-14T07:27:37.211Z,1004.2
2017-08-14T07:28:38.764Z,1004.2
2017-08-14T07:29:40.234Z,1004.2
2017-08-14T07:30:41.809Z,1004.2
2017-08-14T07:31:43.250Z,1004.2
2017-08-14T07:32:44.790Z,1004.2
2017-08-14T07:33:46.363Z,1004.2
2017-08-14T07:34:47.930Z,1004.2
2017-08-14T07:35:49.478Z,1004.2
2017-08-14T07:36:51.058Z,1004.2
2017-08-14T07:37:52.582Z,1004.2
2017-08-14T07:38:54.078Z,1004.1
2017-08-14T07:39:55.844Z,1004.1
2017-08-14T07:40:57.398Z,1004.2
2017-08-14T07:41:58.963Z,1004.1
2017-08-14T07:43:00.629Z,1004.2
2017-08-14T07:44:02.147Z,1004.1
2017-08-14T07:45:03.654Z,1004.1
2017-08-14T07:46:05.200Z,1004.1
2017-08-14T07:47:06.759Z,1004.1
2017-08-14T07:48:08.303Z,1004.1
2017-08-14T07:49:09.840Z,1004.1
2017-08-14T07:50:11.382Z,1004.0
2017-08-14T07:51:12.945Z,1004.1
2017-08-14T07:52:14.503Z,1004.1
2017-08-14T07:53:16.010Z,1004.0
2017-08-14T07:54:17.547Z,1004.1
2017-08-14T07:55:19.091Z,1004.0
2017-08-14T07:56:20.636Z,1004.0
2017-08-14T07:57:22.131Z,1004.0
2017-08-14T07:58:23.682Z,1004.0
2017-08-14T07:59:25.237Z,1004.1
2017-08-14T08:00:26.774Z,1004.0
2017-08-14T08:01:28.302Z,1004.0
2017-08-14T08:02:29.861Z,1004.0
2017-08-14T08:03:31.358Z,1004.1
2017-08-14T08:04:32.863Z,1004.1
2017-08-14T08:05:34.375Z,1004.1
2017-08-14T08:06:35.928Z,1004.0
2017-08-14T08:07:37.460Z,1004.0
2017-08-14T08:08:38.963Z,1004.0
2017-08-14T08:09:40.505Z,1004.1
2017-08-14T08:10:42.053Z,1004.1
2017-08-14T08:11:43.618Z,1004.1
2017-08-14T08:12:45.145Z,1004.1
2017-08-14T08:13:46.720Z,1004.1
2017-08-14T08:14:48.270Z,1004.1
2017-08-14T08:15:49.859Z,1004.1
2017-08-14T08:16:51.363Z,1004.1
2017-08-14T08:17:52.861Z,1004.1
2017-08-14T08:18:54.419Z,1004.1
2017-08-14T08:19:55.936Z,1004.1
2017-08-14T08:20:57.488Z,1004.1
2017-08-14T08:21:59.055Z,1004.0
2017-08-14T08:23:00.564Z,1004.0
2017-08-14T08:24:02.269Z,1004.0
2017-08-14T08:25:03.763Z,1004.0
2017-08-14T08:26:05.301Z,1004.0
2017-08-14T08:27:06.916Z,1004.0
2017-08-14T08:28:08.464Z,1004.0
2017-08-14T08:29:10.015Z,1004.0
2017-08-14T08:30:11.598Z,1004.0
2017-08-14T08:31:13.180Z,1004.0
2017-08-14T08:32:14.774Z,1004.0
2017-08-14T08:33:16.298Z,1004.0
2017-08-14T08:34:17.859Z,1004.0
2017-08-14T08:35:19.372Z,1004.0
2017-08-14T08:36:21.022Z,1004.0
2017-08-14T08:37:22.489Z,1004.0
2017-08-14T08:38:24.016Z,1004.0
2017-08-14T08:39:25.591Z,1004.0
2017-08-14T08:40:27.121Z,1004.0
2017-08-14T08:41:28.698Z,1004.0
2017-08-14T08:42:30.208Z,1004.0
2017-08-14T08:43:31.744Z,1004.0
2017-08-14T08:44:33.239Z,1004.0
2017-08-14T08:45:34.772Z,1004.0
2017-08-14T08:46:36.278Z,1004.0
2017-08-14T08:47:37.796Z,1004.0
2017-08-14T08:48:39.508Z,1004.0
2017-08-14T08:49:41.084Z,1004.0
2017-08-14T08:50:42.596Z,1004.0
2017-08-14T08:51:44.122Z,1004.0
2017-08-14T08:52:45.695Z,1004.0
2017-08-14T08:53:47.218Z,1004.0
2017-08-14T08:54:48.738Z,1004.0
2017-08-14T08:55:50.342Z,1004.0
2017-08-14T08:56:51.887Z,1004.0
2017-08-14T08:57:53.395Z,1004.0
2017-08-14T08:58:54.921Z,1004.0
2017-08-14T08:59:56.505Z,1004.0
2017-08-14T09:00:58.079Z,1004.1
2017-08-14T09:01:59.628Z,1004.1
2017-08-14T09:03:01.162Z,1004.1
2017-08-14T09:04:02.705Z,1004.1
2017-08-14T09:05:04.220Z,1004.1
2017-08-14T09:06:05.789Z,1004.1
2017-08-14T09:07:07.312Z,1004.1
2017-08-14T09:08:08.827Z,1004.2
2017-08-14T09:09:10.414Z,1004.1
2017-08-14T09:10:11.976Z,1004.1
2017-08-14T09:11:13.463Z,1004.2
2017-08-14T09:12:15.093Z,1004.1
2017-08-14T09:13:16.668Z,1004.2
2017-08-14T09:14:18.190Z,1004.1
2017-08-14T09:15:19.776Z,1004.1
2017-08-14T09:16:21.264Z,1004.1
2017-08-14T09:17:22.779Z,1004.1
2017-08-14T09:18:24.314Z,1004.1
2017-08-14T09:19:25.841Z,1004.1
2017-08-14T09:20:27.394Z,1004.1
2017-08-14T09:21:28.933Z,1004.1
2017-08-14T09:22:30.480Z,1004.1
2017-08-14T09:23:32.059Z,1004.1
2017-08-14T09:24:33.587Z,1004.0
2017-08-14T09:25:35.162Z,1004.0
2017-08-14T09:26:36.655Z,1004.0
2017-08-14T09:27:38.277Z,1004.0
2017-08-14T09:28:39.824Z,1004.0
2017-08-14T09:29:41.337Z,1004.0
2017-08-14T09:30:42.899Z,1004.0
2017-08-14T09:31:44.434Z,1004.0
2017-08-14T09:32:46.007Z,1004.0
2017-08-14T09:33:47.515Z,1004.0
2017-08-14T09:34:49.152Z,1004.0
2017-08-14T09:35:50.706Z,1004.0
2017-08-14T09:36:52.291Z,1004.0
2017-08-14T09:37:53.825Z,1004.0
2017-08-14T09:38:55.360Z,1004.0
2017-08-14T09:39:56.914Z,1004.0
2017-08-14T09:40:58.513Z,1003.9
2017-08-14T09:42:00.110Z,1004.0
2017-08-14T09:43:01.681Z,1004.0
2017-08-14T09:44:03.271Z,1003.9
2017-08-14T09:45:04.828Z,1003.9
2017-08-14T09:46:06.383Z,1003.9
2017-08-14T09:47:07.914Z,1003.9
2017-08-14T09:48:09.498Z,1003.9
2017-08-14T09:49:11.018Z,1003.9
2017-08-14T09:50:12.564Z,1003.9
2017-08-14T09:51:14.083Z,1003.9
2017-08-14T09:52:15.636Z,1003.9
2017-08-14T09:53:17.115Z,1003.8
2017-08-14T09:54:18.639Z,1003.8
2017-08-14T09:55:20.186Z,1003.8
2017-08-14T09:56:21.765Z,1003.8
2017-08-14T09:57:23.332Z,1003.8
2017-08-14T09:58:24.878Z,1003.8
2017-08-14T09:59:26.507Z,1003.8
2017-08-14T10:00:28.124Z,1003.8
2017-08-14T10:01:29.649Z,1003.8
2017-08-14T10:02:31.246Z,1003.8
2017-08-14T10:03:32.769Z,1003.7
2017-08-14T10:04:34.323Z,1003.8
2017-08-14T10:05:35.884Z,1003.7
2017-08-14T10:06:37.449Z,1003.7
2017-08-14T10:07:38.979Z,1003.7
2017-08-14T10:08:40.566Z,1003.7
2017-08-14T10:09:42.087Z,1003.7
2017-08-14T10:10:43.634Z,1003.7
2017-08-14T10:11:45.275Z,1003.7
2017-08-14T10:12:46.769Z,1003.7
2017-08-14T10:13:48.360Z,1003.7
2017-08-14T10:14:49.921Z,1003.7
2017-08-14T10:15:51.551Z,1003.7
2017-08-14T10:16:53.091Z,1003.7
2017-08-14T10:17:54.713Z,1003.7
2017-08-14T10:18:56.236Z,1003.7
2017-08-14T10:19:57.839Z,1003.6
2017-08-14T10:20:59.351Z,1003.7
2017-08-14T10:22:00.913Z,1003.7
2017-08-14T10:23:02.441Z,1003.7
2017-08-14T10:24:03.978Z,1003.7
2017-08-14T10:25:05.519Z,1003.7
2017-08-14T10:26:07.099Z,1003.7
2017-08-14T10:27:08.633Z,1003.7
2017-08-14T10:28:10.167Z,1003.7
2017-08-14T10:29:11.684Z,1003.7
2017-08-14T10:30:13.227Z,1003.7
2017-08-14T10:31:14.754Z,1003.7
2017-08-14T10:32:16.282Z,1003.7
2017-08-14T10:33:17.895Z,1003.7
2017-08-14T10:34:19.423Z,1003.7
2017-08-14T10:35:20.977Z,1003.7
2017-08-14T10:36:22.503Z,1003.7
2017-08-14T10:37:24.034Z,1003.7
2017-08-14T10:38:25.555Z,1003.7
2017-08-14T10:39:27.083Z,1003.7
2017-08-14T10:40:28.675Z,1003.7
2017-08-14T10:41:30.198Z,1003.7
2017-08-14T10:42:31.778Z,1003.7
2017-08-14T10:43:33.337Z,1003.8
2017-08-14T10:44:34.927Z,1003.7
2017-08-14T10:45:36.454Z,1003.7
2017-08-14T10:46:38.052Z,1003.7
2017-08-14T10:47:39.638Z,1003.7
2017-08-14T10:48:41.254Z,1003.7
2017-08-14T10:49:42.760Z,1003.7
2017-08-14T10:50:44.318Z,1003.7
2017-08-14T10:51:45.789Z,1003.7
2017-08-14T10:52:47.402Z,1003.7
2017-08-14T10:53:49.000Z,1003.7
2017-08-14T10:54:50.608Z,1003.7
2017-08-14T10:55:52.167Z,1003.7
2017-08-14T10:56:53.779Z,1003.7
2017-08-14T10:57:55.282Z,1003.7
2017-08-14T10:58:56.887Z,1003.7
2017-08-14T10:59:58.405Z,1003.7
2017-08-14T11:00:59.939Z,1003.7
2017-08-14T11:02:01.473Z,1003.7
2017-08-14T11:03:03.021Z,1003.7
2017-08-14T11:04:04.554Z,1003.8
2017-08-14T11:05:06.053Z,1004.1
2017-08-14T11:06:07.610Z,1004.5
2017-08-14T11:07:09.147Z,1004.5
2017-08-14T11:08:10.663Z,1004.5
2017-08-14T11:09:12.155Z,1004.5
2017-08-14T11:10:13.718Z,1004.6
2017-08-14T11:11:15.370Z,1004.6
2017-08-14T11:12:16.959Z,1004.7
2017-08-14T11:13:18.472Z,1004.7
2017-08-14T11:14:20.054Z,1004.6
2017-08-14T11:15:21.583Z,1004.6
2017-08-14T11:16:23.121Z,1004.6
2017-08-14T11:17:24.701Z,1004.7
2017-08-14T11:18:26.236Z,1004.7
2017-08-14T11:19:27.777Z,1004.7
2017-08-14T11:20:29.321Z,1004.7
2017-08-14T11:21:30.826Z,1004.7
2017-08-14T11:22:32.366Z,1004.6
2017-08-14T11:23:33.882Z,1004.7
2017-08-14T11:24:35.463Z,1004.7
2017-08-14T11:25:36.918Z,1004.7
2017-08-14T11:26:38.492Z,1004.6
2017-08-14T11:27:40.035Z,1004.6
2017-08-14T11:28:41.668Z,1004.6
2017-08-14T11:29:43.202Z,1004.6
2017-08-14T11:30:44.759Z,1004.5
2017-08-14T11:31:46.371Z,1004.5
2017-08-14T11:34:02.167Z,1004.5
2017-08-14T11:35:03.741Z,1004.4
2017-08-14T11:36:05.259Z,1004.4
2017-08-14T11:37:06.840Z,1004.5
2017-08-14T11:38:08.406Z,1004.5
2017-08-14T11:39:09.993Z,1004.5
2017-08-14T11:40:11.595Z,1004.5
2017-08-14T11:41:13.242Z,1004.5
2017-08-14T11:42:14.727Z,1004.5
2017-08-14T11:43:16.264Z,1004.5
2017-08-14T11:44:17.801Z,1004.4
2017-08-14T11:45:19.459Z,1004.3
2017-08-14T11:46:21.022Z,1004.3
2017-08-14T11:47:22.586Z,1004.4
2017-08-14T11:48:24.118Z,1004.6
2017-08-14T11:49:25.717Z,1004.6
2017-08-14T11:50:27.280Z,1004.4
2017-08-14T11:51:28.891Z,1004.4
2017-08-14T11:52:30.424Z,1004.5
2017-08-14T11:53:32.046Z,1004.5
2017-08-14T11:54:34.197Z,1004.5
2017-08-14T11:55:35.760Z,1004.5
2017-08-14T11:56:37.400Z,1004.5
2017-08-14T11:57:38.988Z,1004.5
2017-08-14T11:58:40.628Z,1004.5
2017-08-14T11:59:42.158Z,1004.5
2017-08-14T12:00:43.735Z,1004.6
2017-08-14T12:01:45.374Z,1004.6
2017-08-14T12:02:47.053Z,1004.6
2017-08-14T12:03:48.675Z,1004.6
2017-08-14T12:04:50.264Z,1004.5
2017-08-14T12:05:51.835Z,1004.5
2017-08-14T12:06:53.405Z,1004.5
2017-08-14T12:07:54.985Z,1004.4
2017-08-14T12:08:56.588Z,1004.4
2017-08-14T12:09:58.226Z,1004.5
2017-08-14T12:10:59.787Z,1004.4
2017-08-14T12:12:01.416Z,1004.4
2017-08-14T12:13:02.980Z,1004.4
2017-08-14T12:14:04.566Z,1004.4
2017-08-14T12:15:06.132Z,1004.4
2017-08-14T12:16:07.638Z,1004.4
2017-08-14T12:17:09.172Z,1004.3
2017-08-14T12:18:10.718Z,1004.3
2017-08-14T12:19:12.234Z,1004.3
2017-08-14T12:20:13.824Z,1004.3
2017-08-14T12:21:15.467Z,1004.3
2017-08-14T12:22:17.001Z,1004.3
2017-08-14T12:23:18.544Z,1004.2
2017-08-14T12:24:20.118Z,1004.2
2017-08-14T12:25:21.678Z,1004.2
2017-08-14T12:26:23.245Z,1004.2
2017-08-14T12:27:24.798Z,1004.2
2017-08-14T12:28:26.451Z,1004.1
2017-08-14T12:29:27.960Z,1004.1
2017-08-14T12:30:29.533Z,1004.2
2017-08-14T12:31:31.012Z,1004.1
2017-08-14T12:32:32.537Z,1004.1
2017-08-14T12:33:34.147Z,1004.1
2017-08-14T12:34:35.747Z,1004.1
2017-08-14T12:35:37.346Z,1004.1
2017-08-14T12:36:38.857Z,1004.1
2017-08-14T12:37:40.387Z,1004.0
2017-08-14T12:38:41.961Z,1004.0
2017-08-14T12:39:43.530Z,1004.0
2017-08-14T12:40:45.089Z,1004.0
2017-08-14T12:41:46.590Z,1004.0
2017-08-14T12:42:48.103Z,1003.9
2017-08-14T12:43:49.670Z,1003.9
2017-08-14T12:44:51.217Z,1003.9
2017-08-14T12:45:52.762Z,1003.9
2017-08-14T12:46:54.309Z,1003.9
2017-08-14T12:47:55.816Z,1003.9
2017-08-14T12:48:57.408Z,1003.9